Time;durP1;ratioP1;P1;durP2;ratioP2;P2;SDS_P1;SDS_P2;PMS_P1;PMS_P2;Temp;Humidity;BMP_temperature;BMP_pressure;BME280_temperature;BME280_humidity;BME280_pressure;Samples;Min_cycle;Max_cycle;Signal;HPM_P1;HPM_P2
2024/01/23 00:00:15;;;;;;;14.37;3.37;;;4.90;99.90;;;;;;5074005;28;20657;-87
2024/01/23 00:02:41;;;;;;;17.80;4.00;;;4.90;99.90;;;;;;5074815;28;20227;-91
2024/01/23 00:05:09;;;;;;;14.90;3.73;;;5.00;99.90;;;;;;5069861;28;20185;-87
2024/01/23 00:07:35;;;;;;;21.70;3.90;;;5.10;99.90;;;;;;5065738;28;20644;-87
2024/01/23 00:10:00;;;;;;;16.70;4.03;;;5.10;99.90;;;;;;5073866;28;20224;-87
2024/01/23 00:12:26;;;;;;;24.33;5.40;;;5.20;99.90;;;;;;5075126;28;20185;-87
2024/01/23 00:14:52;;;;;;;22.10;3.87;;;5.20;99.90;;;;;;5073781;28;20185;-87
2024/01/23 00:17:17;;;;;;;18.83;3.93;;;5.30;99.90;;;;;;5074145;28;20208;-87
2024/01/23 00:19:43;;;;;;;25.17;3.90;;;5.30;99.90;;;;;;5074925;28;20197;-89
2024/01/23 00:22:09;;;;;;;20.47;4.00;;;5.40;99.90;;;;;;5067625;28;20190;-88
2024/01/23 00:24:35;;;;;;;17.47;3.80;;;5.50;99.90;;;;;;5072142;28;20184;-92
2024/01/23 00:27:00;;;;;;;23.83;4.40;;;5.60;99.90;;;;;;5068816;28;20619;-87
2024/01/23 00:29:26;;;;;;;14.67;3.30;;;5.60;99.90;;;;;;5071953;28;20173;-87
2024/01/23 00:31:51;;;;;;;13.30;2.10;;;5.70;99.90;;;;;;5069758;28;20196;-88
2024/01/23 00:34:19;;;;;;;12.20;2.73;;;5.70;99.90;;;;;;5066197;28;20215;-88
2024/01/23 00:36:45;;;;;;;12.20;2.50;;;5.80;99.90;;;;;;5073193;28;20606;-88
2024/01/23 00:39:11;;;;;;;11.33;2.33;;;5.80;99.90;;;;;;5073258;28;20205;-87
2024/01/23 00:41:38;;;;;;;13.33;2.60;;;5.70;99.90;;;;;;5073044;28;20200;-87
2024/01/23 00:44:07;;;;;;;20.00;2.70;;;5.70;99.90;;;;;;5060462;28;20695;-87
2024/01/23 00:46:33;;;;;;;9.73;2.17;;;5.60;99.90;;;;;;5072711;28;20185;-87
2024/01/23 00:48:59;;;;;;;14.43;2.90;;;5.60;99.90;;;;;;5073656;28;20181;-88
2024/01/23 00:51:25;;;;;;;12.63;2.77;;;5.60;99.90;;;;;;5073618;28;20570;-89
2024/01/23 00:53:50;;;;;;;14.33;3.60;;;5.60;99.90;;;;;;5069343;28;20181;-88
2024/01/23 00:56:16;;;;;;;12.30;3.40;;;5.60;99.90;;;;;;5069277;28;20624;-87
2024/01/23 00:58:42;;;;;;;16.20;3.27;;;5.60;99.90;;;;;;5073273;28;20193;-86
2024/01/23 01:01:08;;;;;;;13.53;3.37;;;5.60;99.90;;;;;;5074414;28;20666;-86
2024/01/23 01:03:33;;;;;;;17.87;3.50;;;5.60;99.90;;;;;;5076176;28;20215;-87
2024/01/23 01:06:00;;;;;;;11.17;2.87;;;5.60;99.90;;;;;;5070868;28;20189;-88
2024/01/23 01:08:26;;;;;;;13.40;3.60;;;5.70;99.90;;;;;;5077139;28;20221;-91
2024/01/23 01:10:51;;;;;;;17.27;3.40;;;5.70;99.90;;;;;;5070950;28;20212;-91
2024/01/23 01:13:17;;;;;;;21.57;3.50;;;5.80;99.90;;;;;;5077428;28;20189;-91
2024/01/23 01:15:46;;;;;;;12.53;3.47;;;5.80;99.90;;;;;;5077262;28;20262;-87
2024/01/23 01:18:12;;;;;;;14.20;3.57;;;5.80;99.90;;;;;;5070499;28;20189;-89
2024/01/23 01:20:37;;;;;;;19.47;3.07;;;5.80;99.90;;;;;;5075548;28;20639;-89
2024/01/23 01:23:03;;;;;;;18.87;3.93;;;5.80;99.90;;;;;;5078254;28;20185;-93
2024/01/23 01:28:15;;;;;;;19.20;3.20;;;5.70;99.90;;;;;;5389967;22;20242;-88
2024/01/23 01:30:41;;;;;;;13.77;3.00;;;5.80;99.90;;;;;;5037859;28;20182;-89
2024/01/23 01:33:06;;;;;;;11.07;3.80;;;5.70;99.90;;;;;;5022545;28;20187;-88
2024/01/23 01:35:32;;;;;;;16.83;3.97;;;5.70;99.90;;;;;;5017246;28;20179;-91
2024/01/23 01:37:58;;;;;;;14.93;3.77;;;5.70;99.90;;;;;;5017173;28;20617;-88
2024/01/23 01:40:25;;;;;;;13.10;3.00;;;5.70;99.90;;;;;;5016957;28;20234;-87
2024/01/23 01:42:52;;;;;;;18.30;3.83;;;5.70;99.90;;;;;;5024602;28;20186;-88
2024/01/23 01:45:18;;;;;;;10.57;2.90;;;5.70;99.90;;;;;;5032863;28;20690;-88
2024/01/23 01:47:43;;;;;;;19.13;3.13;;;5.70;99.90;;;;;;5028232;28;20183;-92
2024/01/23 01:50:10;;;;;;;18.97;3.90;;;5.60;99.90;;;;;;5036849;28;20182;-89
2024/01/23 01:52:41;;;;;;;11.90;2.80;;;5.60;99.90;;;;;;5037239;28;20232;-89
2024/01/23 01:55:08;;;;;;;19.87;3.20;;;5.50;99.90;;;;;;5037463;28;20202;-90
2024/01/23 01:57:37;;;;;;;8.93;2.50;;;5.50;99.90;;;;;;5024826;28;20178;-89
2024/01/23 02:00:08;;;;;;;14.80;3.20;;;5.50;99.90;;;;;;5016814;28;20253;-89
2024/01/23 02:02:36;;;;;;;11.93;2.60;;;5.50;99.90;;;;;;5035521;28;20395;-89
2024/01/23 02:05:02;;;;;;;10.47;2.60;;;5.40;99.90;;;;;;5031264;28;20190;-88
2024/01/23 02:07:29;;;;;;;10.17;2.20;;;5.40;99.90;;;;;;5017357;28;20187;-87
2024/01/23 02:09:54;;;;;;;15.17;3.13;;;5.40;99.90;;;;;;5023942;28;20183;-89
2024/01/23 02:12:20;;;;;;;9.87;2.20;;;5.40;99.90;;;;;;5016090;28;20186;-89
2024/01/23 02:14:46;;;;;;;13.13;2.50;;;5.40;99.90;;;;;;5019394;28;20182;-91
2024/01/23 02:17:12;;;;;;;9.73;2.27;;;5.50;99.90;;;;;;5021029;28;20270;-89
2024/01/23 02:19:38;;;;;;;9.57;2.30;;;5.50;99.90;;;;;;5026560;28;20210;-88
2024/01/23 02:22:03;;;;;;;8.73;2.03;;;5.50;99.90;;;;;;5022428;28;20206;-89
2024/01/23 02:24:29;;;;;;;12.40;2.43;;;5.50;99.90;;;;;;5017123;28;20189;-88
2024/01/23 02:26:55;;;;;;;7.33;1.97;;;5.50;99.90;;;;;;5022866;28;20191;-88
2024/01/23 02:29:22;;;;;;;10.57;2.00;;;5.50;99.90;;;;;;5016126;28;20183;-88
2024/01/23 02:31:48;;;;;;;7.43;1.87;;;5.50;99.90;;;;;;5016145;28;20278;-88
2024/01/23 02:34:14;;;;;;;6.90;1.67;;;5.50;99.90;;;;;;5016163;28;20267;-87
2024/01/23 02:36:42;;;;;;;12.97;2.83;;;5.50;99.90;;;;;;5015847;28;20183;-88
2024/01/23 02:39:14;;;;;;;9.50;2.30;;;5.40;99.90;;;;;;5015842;28;20206;-89
2024/01/23 02:41:40;;;;;;;13.17;2.37;;;5.40;99.90;;;;;;5018360;28;20183;-88
2024/01/23 02:44:06;;;;;;;8.43;2.07;;;5.40;99.90;;;;;;5036692;28;20186;-89
2024/01/23 02:46:31;;;;;;;10.83;2.20;;;5.40;99.90;;;;;;5027298;28;20198;-91
2024/01/23 02:49:04;;;;;;;8.33;2.07;;;5.40;99.90;;;;;;5036817;28;20240;-89
2024/01/23 02:51:30;;;;;;;9.47;2.23;;;5.40;99.90;;;;;;5019333;28;20234;-91
2024/01/23 02:53:55;;;;;;;11.20;2.43;;;5.40;99.90;;;;;;5022757;28;20624;-90
2024/01/23 02:56:21;;;;;;;7.87;2.00;;;5.40;99.90;;;;;;5015696;28;20183;-87
2024/01/23 02:58:47;;;;;;;14.20;2.57;;;5.40;99.90;;;;;;5018528;28;20195;-88
2024/01/23 03:01:12;;;;;;;11.53;2.03;;;5.40;99.90;;;;;;5020496;28;20219;-88
2024/01/23 03:03:38;;;;;;;8.10;2.10;;;5.50;99.90;;;;;;5017682;28;20560;-88
2024/01/23 03:06:04;;;;;;;15.57;2.60;;;5.40;99.90;;;;;;5029836;28;20528;-88
2024/01/23 03:08:29;;;;;;;11.47;2.20;;;5.40;99.90;;;;;;5015296;28;20206;-87
2024/01/23 03:11:01;;;;;;;6.47;1.77;;;5.40;99.90;;;;;;5023788;28;20215;-89
2024/01/23 03:13:27;;;;;;;16.57;2.47;;;5.50;99.90;;;;;;5015211;28;20191;-87
2024/01/23 03:15:53;;;;;;;13.73;2.43;;;5.50;99.90;;;;;;5015288;28;20191;-88
2024/01/23 03:18:19;;;;;;;10.07;2.30;;;5.50;99.90;;;;;;5032030;28;20217;-87
2024/01/23 03:20:52;;;;;;;10.93;2.57;;;5.40;99.90;;;;;;5028008;28;20214;-87
2024/01/23 03:23:18;;;;;;;13.03;2.50;;;5.50;99.90;;;;;;5019058;28;20668;-87
2024/01/23 03:25:43;;;;;;;10.67;2.47;;;5.50;99.90;;;;;;5017706;28;20194;-88
2024/01/23 03:28:09;;;;;;;14.23;2.80;;;5.50;99.90;;;;;;5019973;28;20642;-89
2024/01/23 03:30:37;;;;;;;12.30;2.40;;;5.50;99.90;;;;;;5025859;28;20190;-89
2024/01/23 03:33:03;;;;;;;14.73;3.03;;;5.60;99.90;;;;;;5036103;28;20185;-88
2024/01/23 03:35:28;;;;;;;12.33;1.93;;;5.60;99.90;;;;;;5026632;28;20190;-89
2024/01/23 03:37:55;;;;;;;20.47;3.03;;;5.60;99.90;;;;;;5022254;28;20278;-88
2024/01/23 03:40:20;;;;;;;11.87;2.47;;;5.60;99.90;;;;;;5014959;28;20307;-87
2024/01/23 03:42:46;;;;;;;9.60;2.77;;;5.60;99.90;;;;;;5026057;28;20217;-91
2024/01/23 03:45:12;;;;;;;18.27;2.77;;;5.70;99.90;;;;;;5019929;28;20582;-88
2024/01/23 03:47:38;;;;;;;15.57;3.10;;;5.70;99.90;;;;;;5032177;28;20273;-87
2024/01/23 03:50:04;;;;;;;12.30;2.43;;;5.70;99.90;;;;;;5035468;28;20216;-92
2024/01/23 03:52:30;;;;;;;13.97;2.47;;;5.80;99.90;;;;;;5026344;28;20179;-89
2024/01/23 03:54:55;;;;;;;15.43;3.27;;;6.00;99.90;;;;;;5021543;28;20198;-90
2024/01/23 03:57:21;;;;;;;15.07;2.57;;;6.10;99.90;;;;;;5014533;28;20183;-89
2024/01/23 03:59:47;;;;;;;21.27;3.20;;;6.00;99.90;;;;;;5017792;28;20305;-87
2024/01/23 04:02:12;;;;;;;16.43;3.17;;;6.10;99.90;;;;;;5034120;28;20652;-87
2024/01/23 04:04:38;;;;;;;12.03;2.33;;;6.20;99.90;;;;;;5033910;28;20249;-95
2024/01/23 04:07:05;;;;;;;13.93;2.60;;;6.20;99.90;;;;;;5033776;28;20678;-87
2024/01/23 04:09:30;;;;;;;19.23;2.60;;;6.30;99.90;;;;;;5026008;28;20193;-93
2024/01/23 04:11:56;;;;;;;14.13;2.37;;;6.20;99.90;;;;;;5021170;28;20183;-86
2024/01/23 04:14:22;;;;;;;20.03;2.90;;;6.10;99.90;;;;;;5021678;28;20274;-87
2024/01/23 04:16:48;;;;;;;19.77;3.20;;;6.20;99.90;;;;;;5014333;28;20191;-88
2024/01/23 04:19:14;;;;;;;16.67;2.63;;;6.20;99.90;;;;;;5014200;28;20217;-88
2024/01/23 04:21:41;;;;;;;19.93;3.03;;;6.20;99.90;;;;;;5024540;28;20613;-87
2024/01/23 04:24:07;;;;;;;10.07;2.30;;;6.10;99.90;;;;;;5019740;28;20194;-84
2024/01/23 04:26:33;;;;;;;12.60;2.47;;;6.10;99.90;;;;;;5015336;28;20191;-86
2024/01/23 04:28:59;;;;;;;14.10;2.60;;;6.00;99.90;;;;;;5028716;28;20226;-86
2024/01/23 04:31:25;;;;;;;11.73;2.77;;;6.10;99.90;;;;;;5017306;28;20223;-90
2024/01/23 04:33:52;;;;;;;6.97;2.03;;;6.00;99.90;;;;;;5021949;28;20218;-88
2024/01/23 04:36:17;;;;;;;12.23;2.57;;;6.10;99.90;;;;;;5021785;28;20269;-90
2024/01/23 04:38:43;;;;;;;10.73;2.43;;;6.00;99.90;;;;;;5016270;28;20262;-89
2024/01/23 04:41:10;;;;;;;15.10;2.97;;;6.00;99.90;;;;;;5019222;28;20273;-90
2024/01/23 04:43:36;;;;;;;10.87;2.13;;;6.10;99.90;;;;;;5023632;28;20194;-87
2024/01/23 04:46:02;;;;;;;12.37;1.97;;;6.10;99.90;;;;;;5020341;28;20187;-90
2024/01/23 04:48:27;;;;;;;8.83;2.20;;;6.00;99.90;;;;;;5014319;28;20186;-89
2024/01/23 04:50:53;;;;;;;14.27;2.50;;;6.00;99.90;;;;;;5021235;28;20190;-87
2024/01/23 04:53:19;;;;;;;11.90;2.60;;;6.00;99.90;;;;;;5013467;28;20191;-87
2024/01/23 04:55:45;;;;;;;12.17;2.07;;;6.00;99.90;;;;;;5026133;28;20205;-87
2024/01/23 04:58:11;;;;;;;15.87;2.57;;;5.90;99.90;;;;;;5022219;28;20502;-86
2024/01/23 05:00:38;;;;;;;15.70;2.67;;;6.00;99.90;;;;;;5032703;28;20229;-91
2024/01/23 05:03:04;;;;;;;12.17;2.37;;;6.20;99.90;;;;;;5019989;28;20187;-85
2024/01/23 05:05:31;;;;;;;11.50;2.37;;;6.20;99.90;;;;;;5023717;28;20191;-88
2024/01/23 05:07:57;;;;;;;15.10;2.40;;;6.10;99.90;;;;;;5020452;28;20617;-89
2024/01/23 05:10:23;;;;;;;14.83;2.80;;;6.20;99.90;;;;;;5021894;28;20270;-88
2024/01/23 05:12:49;;;;;;;10.97;2.20;;;6.20;99.90;;;;;;5005863;28;20179;-92
2024/01/23 05:15:15;;;;;;;8.87;1.97;;;6.10;99.90;;;;;;5013818;28;20194;-87
2024/01/23 05:17:41;;;;;;;10.07;1.97;;;6.20;99.90;;;;;;5024487;28;20174;-87
2024/01/23 05:20:07;;;;;;;12.20;2.20;;;6.10;99.90;;;;;;5024982;28;20210;-88
2024/01/23 05:22:44;;;;;;;14.53;2.37;;;6.10;99.90;;;;;;5034329;28;20182;-89
2024/01/23 05:25:10;;;;;;;8.47;2.27;;;6.00;99.90;;;;;;5019091;28;20189;-92
2024/01/23 05:27:36;;;;;;;14.90;2.40;;;6.00;99.90;;;;;;5022894;28;20238;-88
2024/01/23 05:30:06;;;;;;;16.63;2.63;;;6.00;99.90;;;;;;5034590;28;20178;-91
2024/01/23 05:32:34;;;;;;;19.23;2.60;;;6.00;99.90;;;;;;5015708;28;20241;-87
2024/01/23 05:35:03;;;;;;;16.00;2.60;;;6.00;99.90;;;;;;5013468;28;20552;-89
2024/01/23 05:37:30;;;;;;;13.43;2.80;;;6.00;99.90;;;;;;5014036;28;20187;-87
2024/01/23 05:40:11;;;;;;;11.87;2.47;;;6.10;99.90;;;;;;5018581;28;20306;-90
2024/01/23 05:42:45;;;;;;;17.40;2.20;;;6.10;99.90;;;;;;5014105;28;20191;-87
2024/01/23 05:45:11;;;;;;;16.20;2.53;;;6.10;99.90;;;;;;5018748;28;20214;-88
2024/01/23 05:47:37;;;;;;;14.73;2.13;;;6.00;99.90;;;;;;5016786;28;20187;-86
2024/01/23 05:50:03;;;;;;;11.53;2.47;;;6.10;99.90;;;;;;5031619;28;20273;-92
2024/01/23 05:52:30;;;;;;;13.47;2.60;;;6.10;99.90;;;;;;5017735;28;20187;-88
2024/01/23 05:54:56;;;;;;;14.30;2.53;;;6.00;99.90;;;;;;5038165;28;20253;-91
2024/01/23 05:57:22;;;;;;;19.90;2.67;;;6.00;99.90;;;;;;5028706;28;20342;-88
2024/01/23 05:59:48;;;;;;;12.47;2.00;;;6.10;99.90;;;;;;5019660;28;20219;-89
2024/01/23 06:02:20;;;;;;;12.47;2.13;;;6.00;99.90;;;;;;5021519;28;20191;-88
2024/01/23 06:04:46;;;;;;;11.43;2.50;;;6.10;99.90;;;;;;5019591;28;20308;-87
2024/01/23 06:07:12;;;;;;;17.17;2.87;;;6.10;99.90;;;;;;5021766;28;20195;-87
2024/01/23 06:09:38;;;;;;;13.20;2.37;;;6.00;99.90;;;;;;5027653;28;20171;-89
2024/01/23 06:12:10;;;;;;;17.87;2.50;;;6.00;99.90;;;;;;5022705;28;20194;-88
2024/01/23 06:14:36;;;;;;;12.53;2.17;;;6.10;99.90;;;;;;5017884;28;20180;-89
2024/01/23 06:17:03;;;;;;;11.43;2.00;;;6.10;99.90;;;;;;5023102;28;20217;-86
2024/01/23 06:19:28;;;;;;;16.73;3.20;;;6.10;99.90;;;;;;5016770;28;20211;-87
2024/01/23 06:21:54;;;;;;;11.63;2.33;;;6.10;99.90;;;;;;5027800;28;20179;-93
2024/01/23 06:24:21;;;;;;;11.07;2.43;;;6.10;99.90;;;;;;5026154;28;20175;-87
2024/01/23 06:26:47;;;;;;;12.27;2.70;;;6.10;99.90;;;;;;5032828;28;20239;-90
2024/01/23 06:29:12;;;;;;;10.03;2.40;;;6.00;99.90;;;;;;5023151;28;20187;-87
2024/01/23 06:31:41;;;;;;;13.87;2.33;;;6.00;99.90;;;;;;5015817;28;20618;-87
2024/01/23 06:34:07;;;;;;;10.60;2.03;;;5.90;99.90;;;;;;5021733;28;20449;-88
2024/01/23 06:36:35;;;;;;;15.07;2.63;;;5.90;99.90;;;;;;5019215;28;20194;-87
2024/01/23 06:39:01;;;;;;;15.83;2.77;;;5.80;99.90;;;;;;5022479;28;20276;-87
2024/01/23 06:41:27;;;;;;;17.10;3.13;;;5.80;99.90;;;;;;5016207;28;20258;-89
2024/01/23 06:43:53;;;;;;;14.57;2.97;;;5.80;99.90;;;;;;5031202;28;20191;-89
2024/01/23 06:46:20;;;;;;;12.47;2.30;;;5.80;99.90;;;;;;5023659;28;20210;-86
2024/01/23 06:48:46;;;;;;;13.70;2.43;;;5.80;99.90;;;;;;5019254;28;20196;-89
2024/01/23 06:51:12;;;;;;;14.43;2.57;;;5.80;99.90;;;;;;5021082;28;20190;-87
2024/01/23 06:53:48;;;;;;;14.17;2.60;;;5.80;99.90;;;;;;5017799;28;20581;-87
2024/01/23 06:56:14;;;;;;;12.93;2.50;;;5.80;99.90;;;;;;5036609;28;20178;-88
2024/01/23 06:58:40;;;;;;;21.57;3.80;;;5.80;99.90;;;;;;5018886;28;20187;-87
2024/01/23 07:01:05;;;;;;;15.00;2.50;;;5.70;99.90;;;;;;5021796;28;20214;-88
2024/01/23 07:03:31;;;;;;;21.77;3.13;;;5.80;99.90;;;;;;5016511;28;20189;-88
2024/01/23 07:05:57;;;;;;;14.37;2.63;;;5.80;99.90;;;;;;5027220;28;20186;-89
2024/01/23 07:08:23;;;;;;;12.57;2.70;;;5.80;99.90;;;;;;5026573;28;20225;-87
2024/01/23 07:10:49;;;;;;;17.03;2.93;;;5.80;99.90;;;;;;5026146;28;20186;-86
2024/01/23 07:13:16;;;;;;;14.57;2.77;;;5.80;99.90;;;;;;5019597;28;20191;-87
2024/01/23 07:15:42;;;;;;;15.83;2.73;;;5.70;99.90;;;;;;5017723;28;20745;-88
2024/01/23 07:18:08;;;;;;;19.10;3.30;;;5.70;99.90;;;;;;5027994;28;20181;-87
2024/01/23 07:20:33;;;;;;;14.03;3.47;;;5.70;99.90;;;;;;5018629;28;20653;-87
2024/01/23 07:23:00;;;;;;;10.27;2.10;;;5.70;99.90;;;;;;5027650;28;20185;-91
2024/01/23 07:25:26;;;;;;;18.83;3.00;;;5.70;99.90;;;;;;5026744;28;20183;-87
2024/01/23 07:27:52;;;;;;;18.57;3.30;;;5.60;99.90;;;;;;5022454;28;20237;-88
2024/01/23 07:30:19;;;;;;;14.80;3.03;;;5.60;99.90;;;;;;5023243;28;20238;-89
2024/01/23 07:32:45;;;;;;;15.80;3.77;;;5.60;99.90;;;;;;5014808;28;20191;-89
2024/01/23 07:35:11;;;;;;;20.50;3.43;;;5.60;99.90;;;;;;5022673;28;20186;-88
2024/01/23 07:37:37;;;;;;;19.87;3.60;;;5.60;99.90;;;;;;5018586;28;20183;-87
2024/01/23 07:40:03;;;;;;;19.73;3.50;;;5.60;99.90;;;;;;5021518;28;20642;-87
2024/01/23 07:42:32;;;;;;;15.97;3.50;;;5.70;99.90;;;;;;5017366;28;20573;-87
2024/01/23 07:44:58;;;;;;;17.33;2.77;;;5.60;99.90;;;;;;5015038;28;20183;-87
2024/01/23 07:47:24;;;;;;;17.70;3.27;;;5.70;99.90;;;;;;5008033;28;20314;-89
2024/01/23 07:49:50;;;;;;;19.40;3.40;;;5.70;99.90;;;;;;5031452;28;20555;-90
2024/01/23 07:52:22;;;;;;;16.37;3.17;;;5.80;99.90;;;;;;5007774;28;20192;-89
2024/01/23 07:54:48;;;;;;;19.03;3.50;;;5.80;99.90;;;;;;5011402;28;20568;-89
2024/01/23 07:57:14;;;;;;;17.43;3.57;;;5.80;99.90;;;;;;5003157;28;20275;-87
2024/01/23 07:59:40;;;;;;;18.23;3.23;;;5.80;99.90;;;;;;5013023;28;20733;-90
2024/01/23 08:02:06;;;;;;;12.63;3.27;;;5.80;99.90;;;;;;5014532;28;20230;-91
2024/01/23 08:04:33;;;;;;;15.17;2.40;;;5.90;99.90;;;;;;5026138;28;20179;-89
2024/01/23 08:06:59;;;;;;;18.77;3.77;;;5.90;99.90;;;;;;5021189;28;20183;-89
2024/01/23 08:09:25;;;;;;;15.43;3.20;;;5.90;99.90;;;;;;5014171;28;20236;-89
2024/01/23 08:11:52;;;;;;;14.03;3.00;;;5.90;99.90;;;;;;5014451;28;20626;-88
2024/01/23 08:14:19;;;;;;;13.20;3.27;;;5.90;99.90;;;;;;5018468;28;20246;-89
2024/01/23 08:16:45;;;;;;;15.93;3.00;;;5.90;99.90;;;;;;5014504;28;20198;-87
2024/01/23 08:19:11;;;;;;;17.67;3.37;;;5.90;99.90;;;;;;5014174;28;20183;-90
2024/01/23 08:21:37;;;;;;;15.83;3.20;;;5.90;99.90;;;;;;5013964;28;20184;-85
2024/01/23 08:24:03;;;;;;;16.03;3.00;;;5.90;99.90;;;;;;5014478;28;20614;-86
2024/01/23 08:26:29;;;;;;;16.33;3.00;;;5.90;99.90;;;;;;5017212;28;20237;-86
2024/01/23 08:28:56;;;;;;;14.13;2.70;;;6.00;99.90;;;;;;5013578;28;20235;-91
2024/01/23 08:31:22;;;;;;;24.13;3.50;;;6.00;99.90;;;;;;5017717;28;20186;-87
2024/01/23 08:33:48;;;;;;;18.57;2.63;;;6.00;99.90;;;;;;5013672;28;20270;-87
2024/01/23 08:36:14;;;;;;;18.60;3.33;;;6.00;99.90;;;;;;5013823;28;20206;-88
2024/01/23 08:38:41;;;;;;;23.80;3.23;;;6.00;99.90;;;;;;5016353;28;20189;-87
2024/01/23 08:41:07;;;;;;;13.03;3.30;;;6.00;99.90;;;;;;5019610;28;20297;-86
2024/01/23 08:43:35;;;;;;;15.43;2.83;;;6.10;99.90;;;;;;5014760;28;20187;-87
2024/01/23 08:46:01;;;;;;;21.37;3.57;;;6.10;99.90;;;;;;5034665;28;20201;-86
2024/01/23 08:48:28;;;;;;;23.47;3.67;;;6.20;99.90;;;;;;5018040;28;20175;-88
2024/01/23 08:50:54;;;;;;;16.87;4.00;;;6.20;99.90;;;;;;5006219;28;20195;-87
2024/01/23 08:53:20;;;;;;;20.70;3.60;;;6.20;99.90;;;;;;5015109;28;20179;-91
2024/01/23 08:55:47;;;;;;;22.13;3.90;;;6.30;99.90;;;;;;5005923;28;20187;-88
2024/01/23 08:58:17;;;;;;;19.63;3.33;;;6.30;99.90;;;;;;5013367;28;20205;-92
2024/01/23 09:00:43;;;;;;;20.23;4.23;;;6.30;99.90;;;;;;5005574;28;20546;-89
2024/01/23 09:03:09;;;;;;;13.37;2.87;;;6.30;99.90;;;;;;5019358;28;20186;-88
2024/01/23 09:05:35;;;;;;;17.33;3.40;;;6.20;99.90;;;;;;5006741;28;20188;-87
2024/01/23 09:08:01;;;;;;;23.57;3.63;;;6.20;99.90;;;;;;5013532;28;20230;-87
2024/01/23 09:10:28;;;;;;;28.37;4.17;;;6.20;99.90;;;;;;5021575;28;20592;-85
2024/01/23 09:12:54;;;;;;;20.73;3.77;;;6.20;99.90;;;;;;5006036;28;20190;-86
2024/01/23 09:15:19;;;;;;;15.27;2.67;;;6.30;99.90;;;;;;5020850;28;20186;-85
2024/01/23 09:17:45;;;;;;;23.23;3.40;;;6.30;99.90;;;;;;5013912;28;20187;-86
2024/01/23 09:20:12;;;;;;;22.03;3.60;;;6.40;99.90;;;;;;5007017;28;20203;-86
2024/01/23 09:22:39;;;;;;;21.10;3.87;;;6.30;99.90;;;;;;5013537;28;20633;-86
2024/01/23 09:25:07;;;;;;;20.67;3.77;;;6.40;99.90;;;;;;5017289;28;20183;-85
2024/01/23 09:27:33;;;;;;;21.53;3.93;;;6.40;99.90;;;;;;5017277;28;20242;-89
2024/01/23 09:29:59;;;;;;;17.87;3.60;;;6.40;99.90;;;;;;5017234;28;20198;-86
2024/01/23 09:32:25;;;;;;;16.17;3.57;;;6.50;99.90;;;;;;5026500;28;20185;-86
2024/01/23 09:34:52;;;;;;;26.30;4.33;;;6.50;99.90;;;;;;5017577;28;20282;-85
2024/01/23 09:37:18;;;;;;;21.77;4.07;;;6.50;99.90;;;;;;5017522;28;20179;-87
2024/01/23 09:39:44;;;;;;;17.83;3.40;;;6.50;99.90;;;;;;5027862;28;20214;-87
2024/01/23 09:42:10;;;;;;;21.70;4.30;;;6.50;99.90;;;;;;5022616;28;20191;-88
2024/01/23 09:44:40;;;;;;;20.50;3.97;;;6.50;99.90;;;;;;5018399;28;20187;-91
2024/01/23 09:47:08;;;;;;;15.37;3.23;;;6.60;99.90;;;;;;5023003;28;20191;-91
2024/01/23 09:49:36;;;;;;;22.67;3.23;;;6.50;99.90;;;;;;5023980;28;20180;-91
2024/01/23 09:52:04;;;;;;;16.97;3.57;;;6.70;99.90;;;;;;5005483;28;20183;-91
2024/01/23 09:54:31;;;;;;;19.33;3.80;;;6.70;99.90;;;;;;5005643;28;20255;-89
2024/01/23 09:57:01;;;;;;;17.67;3.43;;;6.60;99.90;;;;;;5009457;28;20213;-90
2024/01/23 09:59:27;;;;;;;23.63;3.90;;;6.70;99.90;;;;;;5024465;28;20614;-90
2024/01/23 10:01:53;;;;;;;20.20;3.90;;;6.70;99.90;;;;;;5024984;28;20214;-91
2024/01/23 10:04:22;;;;;;;18.40;3.13;;;6.70;99.90;;;;;;5025305;28;20179;-90
2024/01/23 10:06:48;;;;;;;20.67;4.13;;;6.70;99.90;;;;;;5027991;28;20779;-90
2024/01/23 10:09:14;;;;;;;21.53;4.37;;;6.70;99.90;;;;;;5021625;28;20175;-91
2024/01/23 10:11:41;;;;;;;22.23;3.90;;;6.70;99.90;;;;;;5026737;28;20185;-92
2024/01/23 10:14:07;;;;;;;16.47;3.90;;;6.90;99.90;;;;;;5022323;28;20183;-87
2024/01/23 10:16:34;;;;;;;20.23;3.80;;;6.90;99.90;;;;;;5025533;28;20186;-87
2024/01/23 10:19:00;;;;;;;27.23;4.13;;;7.00;99.90;;;;;;5031542;28;20241;-86
2024/01/23 10:21:26;;;;;;;23.40;4.00;;;7.10;99.90;;;;;;5024666;28;20570;-88
2024/01/23 10:23:52;;;;;;;17.30;3.93;;;7.10;99.90;;;;;;5024700;28;20672;-91
2024/01/23 10:26:21;;;;;;;21.27;3.90;;;7.10;99.90;;;;;;5025789;28;20183;-91
2024/01/23 10:28:47;;;;;;;24.43;4.17;;;7.10;99.90;;;;;;5017069;28;20262;-88
2024/01/23 10:31:14;;;;;;;23.10;3.63;;;7.10;99.90;;;;;;5022726;28;20265;-89
2024/01/23 10:33:40;;;;;;;20.53;3.20;;;7.00;99.90;;;;;;5027641;28;20186;-91
2024/01/23 10:36:09;;;;;;;17.17;3.67;;;7.10;99.90;;;;;;5022107;28;20270;-86
2024/01/23 10:38:38;;;;;;;18.47;3.80;;;7.30;99.90;;;;;;5017292;28;20187;-88
2024/01/23 10:41:04;;;;;;;19.17;4.47;;;7.30;99.90;;;;;;5030516;28;20222;-87
2024/01/23 10:43:31;;;;;;;21.07;4.00;;;7.40;99.90;;;;;;5032827;28;20646;-89
2024/01/23 10:46:05;;;;;;;21.60;4.13;;;7.50;99.90;;;;;;5015955;28;20183;-87
2024/01/23 10:48:32;;;;;;;22.53;4.33;;;7.50;99.90;;;;;;5016568;28;20179;-87
2024/01/23 10:51:30;;;;;;;27.00;4.47;;;7.60;99.90;;;;;;5023204;28;20270;-87
2024/01/23 10:54:15;;;;;;;16.17;3.90;;;7.50;99.90;;;;;;4993743;28;20245;-87
2024/01/23 10:56:46;;;;;;;23.10;4.07;;;7.50;99.90;;;;;;5015440;28;20179;-88
2024/01/23 10:59:18;;;;;;;21.90;4.30;;;7.60;99.90;;;;;;5026691;28;20237;-90
2024/01/23 11:01:45;;;;;;;23.77;3.83;;;7.70;99.90;;;;;;5008562;28;20187;-87
2024/01/23 11:04:15;;;;;;;23.07;4.23;;;7.60;99.90;;;;;;5015546;28;20187;-86
2024/01/23 11:07:09;;;;;;;18.53;4.47;;;7.70;99.90;;;;;;5015592;28;20183;-87
2024/01/23 11:09:47;;;;;;;24.47;4.30;;;7.90;99.90;;;;;;5022814;28;20191;-93
2024/01/23 11:12:27;;;;;;;19.10;4.13;;;7.90;99.90;;;;;;5004957;28;20168;-91
2024/01/23 11:14:59;;;;;;;18.13;4.03;;;7.70;99.90;;;;;;5031467;28;20328;-91
2024/01/23 11:17:31;;;;;;;22.97;4.20;;;7.70;99.90;;;;;;5015354;28;20187;-87
2024/01/23 11:20:08;;;;;;;21.17;3.37;;;7.60;99.90;;;;;;5024696;28;20232;-87
2024/01/23 11:22:35;;;;;;;22.17;4.33;;;7.50;99.90;;;;;;5023321;28;20182;-90
2024/01/23 11:25:03;;;;;;;18.67;4.50;;;7.60;99.90;;;;;;5027601;28;20189;-86
2024/01/23 11:27:30;;;;;;;28.90;4.57;;;7.60;99.90;;;;;;5017599;28;20230;-87
2024/01/23 11:29:58;;;;;;;22.03;3.60;;;7.40;99.90;;;;;;5022763;28;20218;-87
2024/01/23 11:32:25;;;;;;;22.73;4.43;;;7.40;99.90;;;;;;5015368;28;20183;-87
2024/01/23 11:35:11;;;;;;;23.03;4.10;;;7.40;99.90;;;;;;5015130;28;20179;-92
2024/01/23 11:37:50;;;;;;;18.97;4.10;;;7.40;99.90;;;;;;5017277;28;20190;-86
2024/01/23 11:40:33;;;;;;;21.93;4.33;;;7.30;99.90;;;;;;5015215;28;20672;-88
2024/01/23 11:43:03;;;;;;;24.83;4.37;;;7.40;99.90;;;;;;5020030;28;20190;-86
2024/01/23 11:45:32;;;;;;;24.40;5.07;;;7.40;99.90;;;;;;5011090;28;20187;-87
2024/01/23 11:48:04;;;;;;;25.30;4.43;;;7.40;99.90;;;;;;5015884;28;20229;-86
2024/01/23 11:50:32;;;;;;;22.07;4.23;;;7.40;99.90;;;;;;5014442;28;20187;-87
2024/01/23 11:52:59;;;;;;;27.00;4.40;;;7.40;99.90;;;;;;5014862;28;20195;-91
2024/01/23 11:55:26;;;;;;;21.63;4.07;;;7.40;99.90;;;;;;5023172;28;20191;-87
2024/01/23 11:57:58;;;;;;;22.40;4.17;;;7.40;99.90;;;;;;5027409;28;20177;-86
2024/01/23 12:00:26;;;;;;;18.43;3.80;;;7.50;99.90;;;;;;5025807;28;20218;-87
2024/01/23 12:02:53;;;;;;;23.90;5.07;;;7.60;99.90;;;;;;5010347;28;20178;-88
2024/01/23 12:05:19;;;;;;;21.40;3.90;;;7.60;99.90;;;;;;5020050;28;20194;-87
2024/01/23 12:07:49;;;;;;;21.50;3.23;;;7.60;99.90;;;;;;5005029;28;20207;-88
2024/01/23 12:10:17;;;;;;;23.70;4.00;;;7.60;99.90;;;;;;5009411;28;20202;-87
2024/01/23 12:12:43;;;;;;;19.17;4.30;;;7.60;99.90;;;;;;5014312;28;20183;-93
2024/01/23 12:15:09;;;;;;;21.67;4.77;;;7.70;99.90;;;;;;5014144;28;20198;-87
2024/01/23 12:17:45;;;;;;;24.33;4.40;;;7.60;99.90;;;;;;5015919;28;20190;-87
2024/01/23 12:20:12;;;;;;;23.97;3.97;;;7.60;99.90;;;;;;5019790;28;20247;-88
2024/01/23 12:22:38;;;;;;;17.93;4.07;;;7.50;99.90;;;;;;5012797;28;20183;-89
2024/01/23 12:25:05;;;;;;;25.40;4.73;;;7.40;99.90;;;;;;5007959;28;20191;-87
2024/01/23 12:27:31;;;;;;;23.60;4.10;;;7.40;99.90;;;;;;5014193;28;20241;-87
2024/01/23 12:29:58;;;;;;;18.83;3.80;;;7.40;99.90;;;;;;5021332;28;20187;-87
2024/01/23 12:32:34;;;;;;;21.03;3.67;;;7.40;99.90;;;;;;5014799;28;20504;-88
2024/01/23 12:35:00;;;;;;;18.03;3.90;;;7.40;99.90;;;;;;5014317;28;20688;-89
2024/01/23 12:37:31;;;;;;;21.57;4.10;;;7.40;99.90;;;;;;5013926;28;20186;-89
2024/01/23 12:40:04;;;;;;;19.00;3.60;;;7.40;99.90;;;;;;5013434;28;20211;-89
2024/01/23 12:42:30;;;;;;;22.80;4.00;;;7.40;99.90;;;;;;5013595;28;20281;-86
2024/01/23 12:44:57;;;;;;;20.77;3.70;;;7.50;99.90;;;;;;5021200;28;20645;-86
2024/01/23 12:47:23;;;;;;;13.53;3.23;;;7.60;99.90;;;;;;5014411;28;20272;-87
2024/01/23 12:49:49;;;;;;;16.77;3.63;;;7.50;99.90;;;;;;5022025;28;20527;-86